| Date | Time | Temp. (oF) | Dew Point (oF) | Rel. Hum. (%) | Press. (in.) | Wind Dir. | Wind Speed (mph) | Hourly Rainfall (in.) |
|
|---|---|---|---|---|---|---|---|---|---|
| 1 | 09/11 | 00:00 | 61 | 56 | 84 | 30.29 | ESE | 4 | 0.00 |
| 2 | 09/10 | 23:00 | 60 | 56 | 89 | 30.28 | ENE | 0 | 0.00 |
| 3 | 09/10 | 22:00 | 61 | 56 | 85 | 30.27 | S | 0 | 0.00 |
| 4 | 09/10 | 21:00 | 63 | 56 | 78 | 30.25 | SE | 0 | 0.00 |
| 5 | 09/10 | 20:00 | 66 | 52 | 63 | 30.22 | SE | 0 | 0.00 |
| 6 | 09/10 | 19:00 | 71 | 49 | 47 | 30.22 | SE | 0 | 0.00 |
| 7 | 09/10 | 18:00 | 73 | 49 | 43 | 30.20 | ENE | 1 | 0.00 |
| 8 | 09/10 | 17:00 | 72 | 47 | 42 | 30.20 | S | 1 | 0.00 |
| 9 | 09/10 | 16:00 | 74 | 47 | 40 | 30.19 | S | 0 | 0.00 |
| 10 | 09/10 | 15:00 | 75 | 49 | 41 | 30.21 | ENE | 3 | 0.00 |
| 11 | 09/10 | 14:00 | 74 | 52 | 47 | 30.23 | NNW | 5 | 0.00 |
| 12 | 09/10 | 13:00 | 72 | 53 | 52 | 30.24 | NNE | 3 | 0.00 |
| 13 | 09/10 | 12:00 | 70 | 51 | 53 | 30.26 | NNW | 8 | 0.00 |
| 14 | 09/10 | 11:00 | 68 | 52 | 58 | 30.26 | N | 8 | 0.00 |
| 15 | 09/10 | 10:00 | 66 | 54 | 67 | 30.25 | N | 8 | 0.00 |
| 16 | 09/10 | 09:00 | 63 | 54 | 73 | 30.23 | NNE | 7 | 0.00 |
| 17 | 09/10 | 08:00 | 60 | 56 | 88 | 30.22 | N | 3 | 0.00 |
| 18 | 09/10 | 07:00 | 58 | 55 | 93 | 30.19 | NE | 0 | 0.00 |
| 19 | 09/10 | 06:00 | 60 | 56 | 87 | 30.16 | NE | 0 | 0.00 |
| 20 | 09/10 | 05:00 | 61 | 57 | 87 | 30.14 | N | 4 | 0.00 |
| 21 | 09/10 | 04:00 | 63 | 58 | 86 | 30.12 | NNE | 7 | 0.00 |
| 22 | 09/10 | 03:00 | 64 | 60 | 89 | 30.11 | NE | 2 | 0.00 |
| 23 | 09/10 | 02:00 | 65 | 62 | 92 | 30.10 | N | 2 | 0.00 |
| 24 | 09/10 | 01:00 | 65 | 63 | 96 | 30.08 | NW | 0 | 0.00 |